Time;durP1;ratioP1;P1;durP2;ratioP2;P2;SDS_P1;SDS_P2;PMS_P1;PMS_P2;Temp;Humidity;BMP_temperature;BMP_pressure;BME280_temperature;BME280_humidity;BME280_pressure;Samples;Min_cycle;Max_cycle;Signal;HPM_P1;HPM_P2
2022/04/26 03:36:11;;;;;;;;;;;16.40;59.60;;;;;;2045820;28;19904;-68
2022/04/26 03:37:12;;;;;;;;;;;16.40;59.60;;;;;;2045526;28;19903;-68
2022/04/26 03:38:10;;;;;;;;;;;16.40;59.60;;;;;;2045777;28;20003;-67
2022/04/26 03:39:09;;;;;;;;;;;16.40;59.60;;;;;;2045869;28;20262;-67
2022/04/26 03:40:07;;;;;;;;;;;16.30;59.50;;;;;;2045799;28;19904;-68
2022/04/26 03:41:06;;;;;;;;;;;16.40;59.60;;;;;;2045721;28;19904;-67
2022/04/26 03:42:04;;;;;;;;;;;16.30;59.50;;;;;;2045094;28;20401;-67
2022/04/26 03:43:03;;;;;;;;;;;16.40;59.60;;;;;;2045165;28;19973;-67
2022/04/26 03:44:01;;;;;;;;;;;16.40;59.60;;;;;;2045702;28;20277;-68
2022/04/26 03:45:00;;;;;;;;;;;16.40;59.60;;;;;;2045794;28;19990;-69
2022/04/26 03:45:58;;;;;;;;;;;16.40;59.60;;;;;;2045885;28;19911;-69
2022/04/26 03:46:57;;;;;;;;;;;16.30;59.50;;;;;;2045604;28;19903;-68
2022/04/26 03:47:55;;;;;;;;;;;16.40;59.60;;;;;;2045791;28;19903;-68
2022/04/26 03:48:54;;;;;;;;;;;16.40;59.60;;;;;;2045522;28;19903;-67
2022/04/26 03:49:52;;;;;;;;;;;16.40;59.60;;;;;;2045520;28;20360;-68
2022/04/26 03:50:50;;;;;;;;;;;16.40;59.60;;;;;;2045642;28;19903;-68
2022/04/26 03:51:52;;;;;;;;;;;16.40;59.60;;;;;;2045750;28;20247;-69
2022/04/26 03:52:52;;;;;;;;;;;16.40;59.60;;;;;;2045641;28;19903;-69
2022/04/26 03:53:51;;;;;;;;;;;16.30;59.50;;;;;;2045719;28;19991;-68
2022/04/26 03:54:49;;;;;;;;;;;16.40;59.60;;;;;;2044905;28;20309;-67
2022/04/26 03:55:48;;;;;;;;;;;16.30;59.50;;;;;;2045067;28;19950;-68
2022/04/26 03:56:46;;;;;;;;;;;16.40;59.60;;;;;;2045668;28;20312;-68
2022/04/26 03:57:44;;;;;;;;;;;16.30;59.50;;;;;;2048729;28;19904;-67
2022/04/26 03:58:43;;;;;;;;;;;16.40;59.60;;;;;;2046156;28;20085;-68
2022/04/26 03:59:42;;;;;;;;;;;16.30;59.60;;;;;;2050786;28;19908;-68
2022/04/26 04:00:40;;;;;;;;;;;16.30;59.60;;;;;;2048950;28;19935;-67
2022/04/26 04:01:39;;;;;;;;;;;16.40;59.70;;;;;;2046561;28;20018;-67
2022/04/26 04:02:37;;;;;;;;;;;16.30;59.60;;;;;;2046146;28;19952;-67
2022/04/26 04:03:36;;;;;;;;;;;16.30;59.60;;;;;;2046125;28;20002;-68
2022/04/26 04:04:35;;;;;;;;;;;16.30;59.70;;;;;;2045791;28;19911;-68
2022/04/26 04:05:34;;;;;;;;;;;16.40;59.80;;;;;;2045364;28;20286;-68
2022/04/26 04:06:32;;;;;;;;;;;16.30;59.60;;;;;;2045660;28;19998;-68
2022/04/26 04:07:31;;;;;;;;;;;16.30;59.70;;;;;;2045527;28;19908;-68
2022/04/26 04:08:29;;;;;;;;;;;16.30;59.60;;;;;;2045681;28;19910;-67
2022/04/26 04:09:27;;;;;;;;;;;16.30;59.70;;;;;;2045672;28;19926;-67
2022/04/26 04:10:26;;;;;;;;;;;16.30;59.70;;;;;;2045526;28;19904;-66
2022/04/26 04:11:25;;;;;;;;;;;16.30;59.70;;;;;;2045608;28;20369;-68
2022/04/26 04:12:23;;;;;;;;;;;16.40;59.70;;;;;;2045433;28;19903;-67
2022/04/26 04:13:21;;;;;;;;;;;16.40;59.70;;;;;;2045439;27;19915;-67
2022/04/26 04:14:20;;;;;;;;;;;16.40;59.70;;;;;;2045563;28;19910;-67
2022/04/26 04:15:18;;;;;;;;;;;16.40;59.60;;;;;;2045569;28;19904;-68
2022/04/26 04:16:17;;;;;;;;;;;16.30;59.60;;;;;;2045413;28;19903;-67
2022/04/26 04:17:15;;;;;;;;;;;16.40;59.70;;;;;;2045397;28;19981;-67
2022/04/26 04:19:30;;;;;;;;;;;16.30;59.60;;;;;;2045419;28;20030;-68
2022/04/26 04:20:31;;;;;;;;;;;16.30;59.70;;;;;;2045371;27;19933;-68
2022/04/26 04:21:30;;;;;;;;;;;16.30;59.60;;;;;;2045487;28;19907;-69
2022/04/26 04:22:28;;;;;;;;;;;16.40;59.80;;;;;;2045483;28;19904;-68
2022/04/26 04:23:27;;;;;;;;;;;16.40;59.60;;;;;;2045398;28;20278;-68
2022/04/26 04:24:25;;;;;;;;;;;16.40;59.70;;;;;;2045393;28;19988;-68
2022/04/26 04:25:24;;;;;;;;;;;16.40;59.70;;;;;;2045178;28;20314;-67
2022/04/26 04:26:22;;;;;;;;;;;16.40;59.60;;;;;;2045292;28;19914;-68
2022/04/26 04:27:20;;;;;;;;;;;16.30;59.50;;;;;;2045348;28;19908;-69
2022/04/26 04:28:19;;;;;;;;;;;16.40;59.70;;;;;;2045405;28;19923;-68
2022/04/26 04:29:17;;;;;;;;;;;16.40;59.60;;;;;;2045381;28;20248;-69
2022/04/26 04:30:16;;;;;;;;;;;16.40;59.60;;;;;;2045388;28;19911;-67
2022/04/26 04:31:14;;;;;;;;;;;16.40;60.30;;;;;;2045521;28;19904;-68
2022/04/26 04:32:13;;;;;;;;;;;16.30;60.20;;;;;;2045380;28;19904;-69
2022/04/26 04:33:11;;;;;;;;;;;16.30;59.60;;;;;;2045470;28;19954;-70
2022/04/26 04:34:10;;;;;;;;;;;16.40;59.70;;;;;;2045402;28;19991;-68
2022/04/26 04:35:11;;;;;;;;;;;16.40;59.70;;;;;;2045410;28;19903;-67
2022/04/26 04:36:10;;;;;;;;;;;16.30;59.50;;;;;;2046211;28;19911;-67
2022/04/26 04:37:09;;;;;;;;;;;16.30;59.60;;;;;;2045252;28;19914;-67
2022/04/26 04:38:08;;;;;;;;;;;16.30;59.60;;;;;;2045342;28;19910;-69
2022/04/26 04:39:06;;;;;;;;;;;16.30;59.60;;;;;;2045473;28;20267;-67
2022/04/26 04:40:05;;;;;;;;;;;16.30;59.60;;;;;;2045549;28;19991;-68
2022/04/26 04:41:05;;;;;;;;;;;16.40;59.70;;;;;;2045285;28;19949;-68
2022/04/26 04:42:04;;;;;;;;;;;16.30;59.70;;;;;;2045344;28;19911;-68
2022/04/26 04:43:02;;;;;;;;;;;16.30;59.70;;;;;;2045274;28;19947;-68
2022/04/26 04:44:01;;;;;;;;;;;16.30;59.70;;;;;;2045259;28;19979;-67
2022/04/26 04:45:01;;;;;;;;;;;16.30;59.70;;;;;;2045206;28;20343;-68
2022/04/26 04:46:00;;;;;;;;;;;16.40;59.80;;;;;;2045231;28;19903;-67
2022/04/26 04:47:00;;;;;;;;;;;16.30;59.70;;;;;;2045182;28;19907;-68
2022/04/26 04:47:58;;;;;;;;;;;16.40;59.70;;;;;;2045432;28;19952;-69
2022/04/26 04:48:57;;;;;;;;;;;16.30;59.60;;;;;;2045210;28;19957;-67
2022/04/26 04:49:55;;;;;;;;;;;16.40;59.70;;;;;;2045198;28;19911;-67
2022/04/26 04:50:54;;;;;;;;;;;16.40;59.70;;;;;;2045173;28;19904;-67
2022/04/26 04:51:52;;;;;;;;;;;16.40;59.70;;;;;;2045209;28;19904;-68
2022/04/26 04:52:50;;;;;;;;;;;16.30;59.70;;;;;;2045184;28;19910;-68
2022/04/26 04:53:49;;;;;;;;;;;16.30;59.70;;;;;;2045133;28;19972;-68
2022/04/26 04:54:47;;;;;;;;;;;16.30;59.60;;;;;;2045130;28;20094;-68
2022/04/26 04:55:46;;;;;;;;;;;16.30;59.60;;;;;;2045171;28;19911;-69
2022/04/26 04:56:44;;;;;;;;;;;16.40;59.70;;;;;;2045098;28;19904;-67
2022/04/26 04:57:43;;;;;;;;;;;16.30;59.60;;;;;;2044448;28;19946;-68
2022/04/26 04:58:41;;;;;;;;;;;16.30;59.60;;;;;;2044493;28;19914;-68
2022/04/26 04:59:39;;;;;;;;;;;16.40;59.70;;;;;;2045076;28;19903;-67
2022/04/26 05:00:38;;;;;;;;;;;16.30;59.60;;;;;;2045220;28;19904;-67
2022/04/26 05:01:36;;;;;;;;;;;16.30;59.60;;;;;;2044481;28;19904;-67
2022/04/26 05:02:35;;;;;;;;;;;16.40;59.80;;;;;;2044725;28;19911;-68
2022/04/26 05:03:33;;;;;;;;;;;16.40;59.70;;;;;;2045056;28;20347;-68
2022/04/26 05:04:32;;;;;;;;;;;16.40;59.70;;;;;;2044818;28;19930;-67
2022/04/26 05:05:30;;;;;;;;;;;16.40;59.70;;;;;;2044540;28;19923;-68
2022/04/26 05:06:28;;;;;;;;;;;16.30;59.60;;;;;;2045058;28;19908;-68
2022/04/26 05:07:29;;;;;;;;;;;16.40;59.70;;;;;;2045054;28;20377;-68
2022/04/26 05:08:27;;;;;;;;;;;16.40;59.70;;;;;;2045042;28;19953;-68
2022/04/26 05:09:26;;;;;;;;;;;16.30;60.20;;;;;;2045124;28;19908;-69
2022/04/26 05:10:24;;;;;;;;;;;16.40;59.70;;;;;;2045133;28;20351;-69
2022/04/26 05:11:23;;;;;;;;;;;16.40;59.70;;;;;;2045177;28;19915;-67
2022/04/26 05:12:21;;;;;;;;;;;16.40;59.70;;;;;;2045145;27;19915;-68
2022/04/26 05:13:20;;;;;;;;;;;16.30;59.60;;;;;;2045217;28;19904;-68
2022/04/26 05:14:18;;;;;;;;;;;16.40;59.70;;;;;;2045119;28;19991;-68
2022/04/26 05:15:17;;;;;;;;;;;16.40;59.70;;;;;;2044321;28;19904;-68
2022/04/26 05:16:15;;;;;;;;;;;16.40;59.70;;;;;;2044512;28;19931;-68
2022/04/26 05:17:14;;;;;;;;;;;16.40;59.70;;;;;;2045002;28;20037;-68
2022/04/26 05:18:12;;;;;;;;;;;16.40;59.70;;;;;;2045051;28;19935;-69
2022/04/26 05:19:11;;;;;;;;;;;16.40;59.60;;;;;;2045025;28;19910;-68
2022/04/26 05:20:09;;;;;;;;;;;16.40;59.70;;;;;;2044982;28;19910;-68
2022/04/26 05:21:09;;;;;;;;;;;16.40;59.70;;;;;;2045347;28;19910;-68
2022/04/26 05:22:08;;;;;;;;;;;16.40;59.70;;;;;;2045165;28;19904;-69
2022/04/26 05:25:41;;;;;;;;;;;16.40;59.70;;;;;;2045142;28;20287;-68
2022/04/26 05:26:39;;;;;;;;;;;16.40;59.70;;;;;;2045110;28;19969;-69
2022/04/26 05:27:38;;;;;;;;;;;16.40;59.70;;;;;;2045067;28;20424;-71
2022/04/26 05:28:36;;;;;;;;;;;16.40;59.70;;;;;;2045215;28;19904;-69
2022/04/26 05:29:36;;;;;;;;;;;16.40;59.70;;;;;;2045119;28;19942;-69
2022/04/26 05:30:34;;;;;;;;;;;16.40;59.60;;;;;;2045086;28;19904;-70
2022/04/26 05:31:32;;;;;;;;;;;16.40;59.80;;;;;;2045127;28;20048;-68
2022/04/26 05:32:31;;;;;;;;;;;16.40;59.60;;;;;;2044992;28;19908;-68
2022/04/26 05:33:29;;;;;;;;;;;16.40;59.70;;;;;;2045143;28;19949;-69
2022/04/26 05:34:28;;;;;;;;;;;16.40;59.70;;;;;;2044968;28;19904;-67
2022/04/26 05:35:26;;;;;;;;;;;16.50;59.70;;;;;;2044871;28;19950;-67
2022/04/26 05:36:24;;;;;;;;;;;16.40;59.70;;;;;;2044995;28;19904;-68
2022/04/26 05:37:23;;;;;;;;;;;16.50;59.70;;;;;;2045067;28;19951;-68
2022/04/26 05:38:21;;;;;;;;;;;16.50;59.70;;;;;;2045204;28;20278;-69
2022/04/26 05:39:20;;;;;;;;;;;16.50;59.70;;;;;;2045047;28;19985;-68
2022/04/26 05:40:18;;;;;;;;;;;16.50;59.70;;;;;;2045257;28;20006;-70
2022/04/26 05:41:17;;;;;;;;;;;16.50;59.70;;;;;;2045057;28;20266;-69
2022/04/26 05:42:15;;;;;;;;;;;16.50;59.70;;;;;;2044375;28;19939;-69
2022/04/26 05:43:13;;;;;;;;;;;16.50;59.70;;;;;;2044577;28;19911;-68
2022/04/26 05:44:12;;;;;;;;;;;16.50;59.70;;;;;;2044991;28;19945;-69
2022/04/26 05:45:10;;;;;;;;;;;16.50;59.70;;;;;;2044899;28;20251;-68
2022/04/26 05:46:09;;;;;;;;;;;16.60;59.70;;;;;;2044940;28;19953;-69
2022/04/26 05:47:08;;;;;;;;;;;16.60;59.70;;;;;;2044970;28;19908;-67
2022/04/26 05:48:07;;;;;;;;;;;16.60;59.70;;;;;;2044974;28;20355;-67
2022/04/26 05:49:06;;;;;;;;;;;16.60;59.70;;;;;;2044866;28;20456;-68
2022/04/26 05:50:04;;;;;;;;;;;16.60;59.70;;;;;;2045031;28;19904;-67
2022/04/26 05:51:03;;;;;;;;;;;16.40;59.60;;;;;;2044981;28;19992;-67
2022/04/26 05:52:02;;;;;;;;;;;16.60;59.70;;;;;;2044790;28;20346;-68
2022/04/26 05:53:01;;;;;;;;;;;16.60;59.70;;;;;;2044888;28;20397;-68
2022/04/26 05:53:59;;;;;;;;;;;16.60;59.70;;;;;;2044830;28;20380;-69
2022/04/26 05:54:58;;;;;;;;;;;16.60;59.70;;;;;;2044805;28;19904;-67
2022/04/26 05:55:57;;;;;;;;;;;16.50;59.60;;;;;;2044987;28;19996;-66
2022/04/26 05:56:55;;;;;;;;;;;16.50;59.70;;;;;;2044719;28;19953;-67
2022/04/26 05:57:54;;;;;;;;;;;16.60;59.90;;;;;;2044785;28;20058;-69
2022/04/26 05:58:53;;;;;;;;;;;16.60;59.90;;;;;;2044911;28;20361;-67
2022/04/26 05:59:51;;;;;;;;;;;16.60;59.90;;;;;;2044821;28;19907;-68
2022/04/26 06:00:50;;;;;;;;;;;16.60;60.00;;;;;;2044914;28;19911;-68
2022/04/26 06:01:48;;;;;;;;;;;16.70;60.00;;;;;;2044939;28;20227;-67
2022/04/26 06:02:48;;;;;;;;;;;16.60;59.90;;;;;;2044811;28;19911;-67
2022/04/26 06:03:47;;;;;;;;;;;16.70;60.00;;;;;;2044906;28;19911;-67
2022/04/26 06:04:45;;;;;;;;;;;16.70;60.00;;;;;;2044731;28;19910;-68
2022/04/26 06:05:44;;;;;;;;;;;16.70;60.00;;;;;;2044753;28;20320;-67
2022/04/26 06:06:42;;;;;;;;;;;16.60;59.90;;;;;;2044830;28;19998;-67
2022/04/26 06:07:41;;;;;;;;;;;16.70;59.90;;;;;;2044785;28;19907;-68
2022/04/26 06:08:39;;;;;;;;;;;16.70;60.00;;;;;;2044779;28;19910;-67
2022/04/26 06:09:38;;;;;;;;;;;16.70;59.90;;;;;;2044880;28;19912;-68
2022/04/26 06:10:37;;;;;;;;;;;16.70;59.90;;;;;;2044814;28;19910;-68
2022/04/26 06:11:35;;;;;;;;;;;16.70;59.90;;;;;;2044891;28;19903;-68
2022/04/26 06:12:35;;;;;;;;;;;16.70;59.80;;;;;;2044924;28;19903;-68
2022/04/26 06:13:33;;;;;;;;;;;16.70;59.70;;;;;;2044904;28;19983;-68
2022/04/26 06:14:31;;;;;;;;;;;16.70;59.70;;;;;;2044773;28;19964;-66
2022/04/26 06:15:30;;;;;;;;;;;16.70;59.70;;;;;;2044798;28;19907;-69
2022/04/26 06:16:28;;;;;;;;;;;16.70;59.70;;;;;;2045433;28;19903;-68
2022/04/26 06:17:28;;;;;;;;;;;16.70;59.70;;;;;;2046352;28;20378;-67
2022/04/26 06:18:27;;;;;;;;;;;16.70;59.70;;;;;;2046202;28;19957;-68
2022/04/26 06:19:25;;;;;;;;;;;16.80;59.70;;;;;;2046392;28;19907;-67
2022/04/26 06:20:25;;;;;;;;;;;16.80;59.60;;;;;;2045542;28;20350;-67
2022/04/26 06:21:23;;;;;;;;;;;16.80;59.70;;;;;;2045818;28;19954;-68
2022/04/26 06:22:22;;;;;;;;;;;16.80;59.70;;;;;;2046407;28;20342;-68
2022/04/26 06:23:20;;;;;;;;;;;16.80;59.80;;;;;;2046593;28;19904;-69
2022/04/26 06:24:19;;;;;;;;;;;16.80;59.90;;;;;;2046442;27;20263;-68
2022/04/26 06:25:17;;;;;;;;;;;16.90;60.00;;;;;;2046477;28;19994;-68
2022/04/26 06:26:16;;;;;;;;;;;16.90;60.00;;;;;;2046390;27;20312;-68
2022/04/26 06:27:14;;;;;;;;;;;16.80;60.00;;;;;;2046369;28;19959;-70
2022/04/26 06:28:13;;;;;;;;;;;16.80;60.10;;;;;;2045671;28;19939;-69
2022/04/26 06:29:11;;;;;;;;;;;16.90;60.10;;;;;;2045845;28;20119;-65
2022/04/26 06:30:10;;;;;;;;;;;16.90;60.30;;;;;;2046240;28;19956;-68
2022/04/26 06:31:09;;;;;;;;;;;16.90;60.80;;;;;;2046281;28;20002;-67
2022/04/26 06:32:07;;;;;;;;;;;16.90;60.60;;;;;;2046315;28;19904;-69
2022/04/26 06:33:06;;;;;;;;;;;16.90;60.60;;;;;;2045492;28;19946;-67
2022/04/26 06:34:04;;;;;;;;;;;16.90;60.70;;;;;;2045618;28;19927;-68
2022/04/26 06:35:03;;;;;;;;;;;16.90;60.90;;;;;;2045578;28;19911;-68
2022/04/26 06:36:01;;;;;;;;;;;16.90;60.90;;;;;;2046179;27;19994;-70
2022/04/26 06:37:00;;;;;;;;;;;16.90;61.00;;;;;;2046240;28;20228;-68
2022/04/26 06:37:58;;;;;;;;;;;16.90;60.90;;;;;;2046234;28;19904;-68
2022/04/26 06:38:56;;;;;;;;;;;16.80;60.90;;;;;;2046319;28;19904;-69
2022/04/26 06:39:55;;;;;;;;;;;16.80;60.80;;;;;;2046384;28;20267;-69
2022/04/26 06:40:54;;;;;;;;;;;16.90;60.90;;;;;;2045660;28;20014;-69
2022/04/26 06:41:52;;;;;;;;;;;16.80;60.80;;;;;;2045510;28;19907;-69
2022/04/26 06:42:51;;;;;;;;;;;16.90;60.90;;;;;;2046616;28;19954;-68
2022/04/26 06:43:49;;;;;;;;;;;16.80;60.80;;;;;;2046933;28;19922;-68
2022/04/26 06:44:48;;;;;;;;;;;16.90;60.80;;;;;;2047025;28;20403;-68
2022/04/26 06:45:46;;;;;;;;;;;16.90;60.80;;;;;;2048368;28;19904;-68
2022/04/26 06:46:45;;;;;;;;;;;16.90;60.80;;;;;;2047447;28;19904;-67
2022/04/26 06:47:43;;;;;;;;;;;16.80;60.70;;;;;;2047394;28;19908;-68
2022/04/26 06:48:43;;;;;;;;;;;17.00;60.80;;;;;;2047248;28;19908;-68
2022/04/26 06:49:42;;;;;;;;;;;16.80;60.50;;;;;;2046372;28;20402;-68
2022/04/26 06:50:41;;;;;;;;;;;16.90;60.60;;;;;;2046714;28;19904;-68
2022/04/26 06:51:44;;;;;;;;;;;16.90;60.60;;;;;;2046592;28;19903;-68
2022/04/26 06:52:42;;;;;;;;;;;16.90;60.40;;;;;;2046208;28;19907;-68
2022/04/26 06:53:41;;;;;;;;;;;16.90;60.40;;;;;;2046273;27;19904;-68
2022/04/26 06:54:39;;;;;;;;;;;16.80;60.00;;;;;;2045525;28;19969;-69
2022/04/26 06:55:37;;;;;;;;;;;16.80;60.30;;;;;;2045568;28;19903;-68
2022/04/26 06:56:36;;;;;;;;;;;16.90;60.20;;;;;;2045466;28;20371;-68
2022/04/26 06:57:36;;;;;;;;;;;16.90;60.20;;;;;;2045620;28;19957;-68
2022/04/26 06:58:34;;;;;;;;;;;16.90;60.20;;;;;;2046099;28;19953;-68
2022/04/26 06:59:33;;;;;;;;;;;16.90;60.20;;;;;;2046092;28;19992;-68
2022/04/26 07:00:31;;;;;;;;;;;16.90;60.10;;;;;;2046059;28;19907;-68
2022/04/26 07:01:30;;;;;;;;;;;16.90;60.00;;;;;;2046047;28;19911;-68
2022/04/26 07:02:28;;;;;;;;;;;16.90;59.90;;;;;;2046068;28;19904;-67
2022/04/26 07:03:27;;;;;;;;;;;16.90;60.00;;;;;;2046139;28;20307;-68
2022/04/26 07:04:25;;;;;;;;;;;16.90;60.00;;;;;;2046105;28;20308;-68
2022/04/26 07:05:24;;;;;;;;;;;16.90;60.00;;;;;;2045916;28;19915;-68
2022/04/26 07:06:22;;;;;;;;;;;16.90;60.00;;;;;;2046009;28;20393;-69
2022/04/26 07:07:22;;;;;;;;;;;16.90;59.70;;;;;;2046205;28;20366;-69
2022/04/26 07:08:20;;;;;;;;;;;16.90;59.70;;;;;;2046142;28;19915;-69
2022/04/26 07:09:19;;;;;;;;;;;16.90;59.80;;;;;;2046035;28;19936;-68
2022/04/26 07:10:19;;;;;;;;;;;16.90;59.70;;;;;;2046084;28;20315;-69
2022/04/26 07:11:17;;;;;;;;;;;16.90;59.70;;;;;;2045972;28;19964;-68
2022/04/26 07:12:15;;;;;;;;;;;17.00;59.70;;;;;;2046171;28;19961;-68
2022/04/26 07:13:21;;;;;;;;;;;16.90;59.50;;;;;;2046035;28;19954;-69
2022/04/26 07:14:20;;;;;;;;;;;16.90;59.70;;;;;;2046102;28;20200;-69
2022/04/26 07:15:18;;;;;;;;;;;16.90;59.80;;;;;;2046025;28;19908;-69
2022/04/26 07:16:16;;;;;;;;;;;17.00;59.90;;;;;;2045964;28;19911;-68
2022/04/26 07:17:17;;;;;;;;;;;16.90;59.80;;;;;;2046155;28;19903;-68
2022/04/26 07:18:15;;;;;;;;;;;16.90;59.80;;;;;;2045965;28;19908;-68
2022/04/26 07:19:14;;;;;;;;;;;16.90;59.90;;;;;;2045915;28;19904;-68
2022/04/26 07:20:12;;;;;;;;;;;17.00;59.90;;;;;;2045213;28;19919;-69
2022/04/26 07:21:11;;;;;;;;;;;16.90;59.90;;;;;;2045187;28;19911;-69
2022/04/26 07:22:09;;;;;;;;;;;16.90;59.90;;;;;;2046019;28;19911;-68
2022/04/26 07:23:08;;;;;;;;;;;16.90;60.00;;;;;;2045924;28;20304;-68
2022/04/26 07:24:06;;;;;;;;;;;16.90;59.80;;;;;;2045979;28;19910;-68
2022/04/26 07:25:09;;;;;;;;;;;16.90;59.90;;;;;;2045847;28;19943;-68
2022/04/26 07:26:08;;;;;;;;;;;17.00;60.10;;;;;;2045733;28;19911;-68
2022/04/26 07:27:06;;;;;;;;;;;16.90;59.90;;;;;;2045799;28;19904;-69
2022/04/26 07:28:05;;;;;;;;;;;16.90;59.90;;;;;;2044936;28;20252;-69
2022/04/26 07:29:04;;;;;;;;;;;17.00;59.90;;;;;;2046010;28;19910;-69
2022/04/26 07:30:03;;;;;;;;;;;17.00;59.90;;;;;;2045847;28;20357;-68
2022/04/26 07:31:01;;;;;;;;;;;17.00;59.80;;;;;;2045920;28;19903;-68
2022/04/26 07:32:00;;;;;;;;;;;17.00;60.40;;;;;;2045951;28;19904;-69
2022/04/26 07:34:21;;;;;;;;;;;17.00;59.50;;;;;;2045898;28;19904;-69
2022/04/26 07:35:20;;;;;;;;;;;16.90;59.40;;;;;;2046116;28;19957;-70
2022/04/26 07:36:22;;;;;;;;;;;17.00;59.50;;;;;;2045708;28;20286;-69
2022/04/26 07:37:22;;;;;;;;;;;17.00;59.40;;;;;;2045777;28;19964;-69
2022/04/26 07:38:20;;;;;;;;;;;17.00;59.40;;;;;;2045768;27;19903;-69
2022/04/26 07:39:19;;;;;;;;;;;17.00;59.50;;;;;;2045859;28;19904;-68
2022/04/26 07:40:18;;;;;;;;;;;17.00;59.50;;;;;;2045770;28;19947;-68
2022/04/26 07:41:17;;;;;;;;;;;17.00;59.50;;;;;;2045802;28;19908;-69
2022/04/26 07:42:15;;;;;;;;;;;17.00;59.40;;;;;;2045766;28;19904;-67
2022/04/26 07:43:14;;;;;;;;;;;17.00;59.30;;;;;;2045679;28;19953;-68
2022/04/26 07:44:13;;;;;;;;;;;17.00;59.40;;;;;;2046113;28;20335;-68
2022/04/26 07:45:12;;;;;;;;;;;17.00;59.40;;;;;;2045666;28;19904;-68
2022/04/26 07:46:15;;;;;;;;;;;17.00;59.50;;;;;;2045665;28;19935;-68
2022/04/26 07:47:13;;;;;;;;;;;17.00;59.50;;;;;;2045616;28;20002;-68
2022/04/26 07:48:14;;;;;;;;;;;17.00;59.40;;;;;;2045640;28;19960;-68
2022/04/26 07:49:14;;;;;;;;;;;17.00;59.40;;;;;;2045653;28;20244;-68
2022/04/26 07:50:13;;;;;;;;;;;17.00;59.30;;;;;;2045708;28;19907;-69
2022/04/26 07:51:11;;;;;;;;;;;17.00;59.40;;;;;;2045648;28;19903;-68
2022/04/26 07:52:09;;;;;;;;;;;17.10;59.40;;;;;;2045536;28;20342;-68
2022/04/26 07:53:08;;;;;;;;;;;17.00;59.20;;;;;;2045584;28;19903;-67
2022/04/26 07:54:06;;;;;;;;;;;17.00;59.10;;;;;;2045640;28;19903;-70
2022/04/26 07:55:05;;;;;;;;;;;17.10;59.00;;;;;;2045617;28;19911;-69
2022/04/26 07:56:04;;;;;;;;;;;17.00;58.80;;;;;;2045833;28;19910;-68
2022/04/26 07:57:03;;;;;;;;;;;17.00;58.70;;;;;;2045540;28;19914;-68
2022/04/26 07:58:01;;;;;;;;;;;17.00;59.40;;;;;;2045573;28;20370;-68
2022/04/26 07:59:01;;;;;;;;;;;17.00;58.80;;;;;;2045574;28;19994;-68
2022/04/26 08:00:00;;;;;;;;;;;17.00;58.90;;;;;;2045668;28;19904;-69
2022/04/26 08:00:59;;;;;;;;;;;17.00;58.90;;;;;;2045788;28;19904;-68
2022/04/26 08:01:58;;;;;;;;;;;17.00;58.90;;;;;;2045589;28;19903;-70
2022/04/26 08:02:56;;;;;;;;;;;17.00;58.90;;;;;;2045628;27;20355;-68
2022/04/26 08:03:54;;;;;;;;;;;17.00;58.90;;;;;;2045519;28;19962;-69
2022/04/26 08:04:54;;;;;;;;;;;17.00;59.00;;;;;;2045372;28;19904;-68
2022/04/26 08:05:53;;;;;;;;;;;17.10;58.90;;;;;;2045669;27;19950;-70
2022/04/26 08:06:52;;;;;;;;;;;17.10;58.80;;;;;;2045762;28;19907;-68
2022/04/26 08:07:50;;;;;;;;;;;17.10;58.80;;;;;;2045269;28;19915;-68
2022/04/26 08:08:49;;;;;;;;;;;17.10;58.80;;;;;;2045482;28;19907;-68
2022/04/26 08:09:47;;;;;;;;;;;17.10;58.80;;;;;;2045591;28;19904;-70
2022/04/26 08:10:46;;;;;;;;;;;17.10;58.50;;;;;;2045453;28;19903;-69
2022/04/26 08:11:46;;;;;;;;;;;17.10;58.50;;;;;;2045508;28;19904;-68
2022/04/26 08:12:44;;;;;;;;;;;17.10;58.50;;;;;;2045475;28;20379;-68
2022/04/26 08:13:43;;;;;;;;;;;17.10;58.40;;;;;;2045520;28;20040;-68
2022/04/26 08:14:41;;;;;;;;;;;17.10;58.40;;;;;;2045440;28;19907;-68
2022/04/26 08:15:40;;;;;;;;;;;17.10;58.30;;;;;;2045482;28;19903;-69
2022/04/26 08:16:38;;;;;;;;;;;17.10;58.40;;;;;;2045313;28;19954;-70
2022/04/26 08:17:37;;;;;;;;;;;17.20;58.30;;;;;;2045438;28;19947;-68
2022/04/26 08:18:36;;;;;;;;;;;17.20;58.30;;;;;;2045524;28;19908;-68
2022/04/26 08:19:34;;;;;;;;;;;17.20;58.20;;;;;;2045514;28;20311;-68
2022/04/26 08:20:33;;;;;;;;;;;17.20;58.30;;;;;;2045353;28;19916;-68
2022/04/26 08:21:31;;;;;;;;;;;17.20;58.30;;;;;;2045376;28;19907;-69
2022/04/26 08:22:30;;;;;;;;;;;17.20;58.30;;;;;;2045284;28;19903;-68
2022/04/26 08:23:30;;;;;;;;;;;17.20;58.10;;;;;;2045406;28;19950;-69
2022/04/26 08:28:21;;;;;;;;;;;17.20;57.90;;;;;;2045384;28;19904;-69
2022/04/26 08:29:19;;;;;;;;;;;17.30;57.80;;;;;;2045491;27;20273;-68
2022/04/26 08:30:18;;;;;;;;;;;17.30;57.60;;;;;;2045339;28;19911;-67
2022/04/26 08:31:16;;;;;;;;;;;17.30;57.50;;;;;;2045312;28;19926;-68
2022/04/26 08:32:14;;;;;;;;;;;17.30;57.60;;;;;;2045333;28;19903;-69
2022/04/26 08:33:13;;;;;;;;;;;17.30;57.60;;;;;;2045243;28;20278;-68
2022/04/26 08:34:11;;;;;;;;;;;17.40;57.70;;;;;;2045304;28;19914;-67
2022/04/26 08:35:11;;;;;;;;;;;17.40;57.60;;;;;;2045343;28;20360;-67
2022/04/26 08:36:12;;;;;;;;;;;17.40;57.60;;;;;;2045186;28;19953;-68
2022/04/26 08:37:11;;;;;;;;;;;17.40;57.60;;;;;;2045227;28;19904;-68
2022/04/26 08:38:09;;;;;;;;;;;17.40;57.50;;;;;;2044682;28;19904;-68
2022/04/26 08:39:08;;;;;;;;;;;17.40;57.40;;;;;;2044685;28;19966;-69
2022/04/26 08:40:07;;;;;;;;;;;17.40;57.40;;;;;;2045196;28;19957;-68
2022/04/26 08:41:06;;;;;;;;;;;17.40;57.40;;;;;;2045188;28;19935;-68
2022/04/26 08:42:06;;;;;;;;;;;17.50;57.50;;;;;;2045273;28;19904;-68
2022/04/26 08:43:04;;;;;;;;;;;17.50;57.40;;;;;;2045255;28;19904;-69
2022/04/26 08:44:09;;;;;;;;;;;17.50;57.30;;;;;;2045287;28;19911;-69
2022/04/26 08:45:09;;;;;;;;;;;17.50;57.30;;;;;;2045181;28;19950;-69
2022/04/26 08:46:08;;;;;;;;;;;17.50;57.30;;;;;;2045300;28;19991;-69
2022/04/26 08:51:00;;;;;;;;;;;17.60;56.70;;;;;;2045405;28;19904;-69
2022/04/26 08:52:00;;;;;;;;;;;17.50;56.50;;;;;;2045205;28;19904;-69
2022/04/26 08:52:58;;;;;;;;;;;17.60;57.30;;;;;;2044512;28;20339;-68
2022/04/26 08:53:57;;;;;;;;;;;17.60;56.50;;;;;;2044549;28;19927;-68
2022/04/26 08:54:56;;;;;;;;;;;17.60;56.40;;;;;;2045271;28;19964;-68
2022/04/26 08:55:55;;;;;;;;;;;17.60;56.50;;;;;;2045157;28;19954;-68
2022/04/26 08:56:53;;;;;;;;;;;17.70;56.50;;;;;;2045006;28;19903;-68
2022/04/26 08:57:52;;;;;;;;;;;17.70;56.50;;;;;;2045135;28;19908;-68
2022/04/26 08:58:51;;;;;;;;;;;17.70;56.40;;;;;;2045181;28;19910;-68
2022/04/26 08:59:50;;;;;;;;;;;17.70;56.50;;;;;;2045196;28;20401;-68
2022/04/26 09:01:11;;;;;;;;;;;17.70;56.40;;;;;;2045196;28;20247;-68
2022/04/26 09:02:19;;;;;;;;;;;17.70;56.20;;;;;;2045237;28;19960;-67
2022/04/26 09:03:17;;;;;;;;;;;17.70;56.20;;;;;;2045436;28;19904;-69
2022/04/26 09:04:17;;;;;;;;;;;17.70;56.20;;;;;;2045051;28;19904;-68
2022/04/26 09:05:15;;;;;;;;;;;17.70;56.10;;;;;;2044870;27;19919;-69
2022/04/26 09:06:15;;;;;;;;;;;17.80;56.20;;;;;;2044349;28;19961;-69
2022/04/26 09:07:34;;;;;;;;;;;17.80;56.00;;;;;;2044343;28;19912;-68
2022/04/26 09:08:32;;;;;;;;;;;17.80;55.90;;;;;;2044482;28;20378;-68
2022/04/26 09:09:30;;;;;;;;;;;17.80;55.70;;;;;;2045106;28;19904;-68
2022/04/26 09:10:29;;;;;;;;;;;17.80;55.80;;;;;;2044984;28;19953;-69
2022/04/26 09:11:32;;;;;;;;;;;17.80;55.80;;;;;;2045075;28;19904;-68
2022/04/26 09:12:31;;;;;;;;;;;17.80;55.70;;;;;;2045136;27;20312;-70
2022/04/26 09:13:40;;;;;;;;;;;17.80;55.70;;;;;;2045090;28;19972;-67
2022/04/26 09:14:47;;;;;;;;;;;17.80;55.60;;;;;;2044978;28;19990;-67
2022/04/26 09:15:48;;;;;;;;;;;17.80;56.20;;;;;;2045158;28;19961;-69
2022/04/26 09:16:46;;;;;;;;;;;17.80;55.60;;;;;;2044931;28;20040;-68
2022/04/26 09:17:45;;;;;;;;;;;17.90;55.70;;;;;;2045207;28;19951;-69
2022/04/26 09:18:51;;;;;;;;;;;17.90;55.70;;;;;;2045208;28;20144;-69
2022/04/26 09:19:52;;;;;;;;;;;17.90;55.70;;;;;;2044474;28;19903;-69
2022/04/26 09:20:54;;;;;;;;;;;18.00;55.70;;;;;;2036260;28;19904;-68
2022/04/26 09:21:54;;;;;;;;;;;18.00;55.60;;;;;;2044420;28;19953;-71
2022/04/26 09:22:57;;;;;;;;;;;18.00;55.40;;;;;;2045078;28;19914;-68
2022/04/26 09:23:57;;;;;;;;;;;18.00;55.40;;;;;;2045002;28;19904;-68
2022/04/26 09:25:14;;;;;;;;;;;18.10;55.60;;;;;;2045132;28;19968;-68
2022/04/26 09:26:14;;;;;;;;;;;18.00;55.40;;;;;;2045008;28;19903;-69
2022/04/26 09:27:15;;;;;;;;;;;18.10;55.40;;;;;;2044767;28;19987;-69
2022/04/26 09:28:22;;;;;;;;;;;18.10;55.40;;;;;;2045065;28;19960;-68
2022/04/26 09:29:21;;;;;;;;;;;18.10;55.30;;;;;;2045182;28;19904;-69
2022/04/26 09:30:19;;;;;;;;;;;18.10;55.20;;;;;;2045020;28;19903;-69
2022/04/26 09:31:25;;;;;;;;;;;18.10;55.00;;;;;;2044920;28;19995;-69
2022/04/26 09:32:23;;;;;;;;;;;18.10;55.00;;;;;;2045062;28;19907;-69